createdAt,value
2018-01-29T00:00:33.781Z,10.03
2018-01-29T00:03:02.110Z,10.27
2018-01-29T00:05:30.402Z,9.03
2018-01-29T00:07:58.754Z,11.13
2018-01-29T00:10:27.421Z,10.03
2018-01-29T00:12:55.713Z,8.60
2018-01-29T00:15:24.019Z,8.17
2018-01-29T00:17:52.336Z,8.97
2018-01-29T00:20:20.630Z,8.97
2018-01-29T00:22:49.195Z,7.67
2018-01-29T00:25:17.578Z,8.83
2018-01-29T00:27:45.870Z,8.37
2018-01-29T00:30:14.186Z,7.60
2018-01-29T00:32:42.492Z,7.80
2018-01-29T00:35:10.926Z,8.20
2018-01-29T00:37:40.011Z,7.90
2018-01-29T00:40:08.361Z,7.87
2018-01-29T00:42:36.672Z,9.00
2018-01-29T00:45:05.044Z,7.80
2018-01-29T00:47:33.354Z,8.13
2018-01-29T00:50:01.643Z,11.03
2018-01-29T00:52:29.950Z,10.80
2018-01-29T00:54:58.249Z,12.27
2018-01-29T00:57:27.371Z,10.70
2018-01-29T00:59:56.471Z,14.27
2018-01-29T01:02:25.552Z,14.00
2018-01-29T01:04:53.874Z,12.47
2018-01-29T01:07:22.469Z,12.97
2018-01-29T01:09:51.551Z,10.60
2018-01-29T01:12:19.854Z,9.00
2018-01-29T01:14:48.154Z,9.23
2018-01-29T01:17:17.230Z,8.70
2018-01-29T01:19:45.555Z,10.20
2018-01-29T01:22:14.609Z,9.40
2018-01-29T01:24:42.962Z,15.97
2018-01-29T01:27:12.142Z,8.40
2018-01-29T01:29:40.552Z,6.63
2018-01-29T01:32:08.914Z,8.30
2018-01-29T01:34:37.439Z,7.60
2018-01-29T01:37:05.748Z,6.70
2018-01-29T01:39:34.811Z,4.90
2018-01-29T01:42:03.136Z,5.20
2018-01-29T01:44:32.283Z,3.77
2018-01-29T01:47:01.005Z,3.77
2018-01-29T01:49:31.045Z,3.43
2018-01-29T01:51:59.432Z,3.23
2018-01-29T01:54:27.738Z,3.70
2018-01-29T01:56:56.033Z,4.73
2018-01-29T01:59:24.367Z,4.40
2018-01-29T02:01:52.683Z,2.90
2018-01-29T02:04:20.980Z,3.70
2018-01-29T02:06:49.270Z,2.80
2018-01-29T02:09:17.783Z,3.43
2018-01-29T02:11:46.106Z,2.77
2018-01-29T02:14:15.158Z,2.90
2018-01-29T02:16:43.476Z,2.10
2018-01-29T02:19:11.762Z,2.10
2018-01-29T02:21:40.133Z,2.10
2018-01-29T02:24:08.434Z,2.67
2018-01-29T02:26:36.802Z,2.47
2018-01-29T02:29:05.113Z,2.30
2018-01-29T02:31:33.431Z,3.50
2018-01-29T02:34:02.607Z,3.17
2018-01-29T02:36:31.013Z,2.30
2018-01-29T02:38:59.522Z,4.40
2018-01-29T02:41:28.603Z,3.07
2018-01-29T02:43:56.910Z,3.00
2018-01-29T02:46:25.207Z,2.50
2018-01-29T02:48:53.510Z,2.83
2018-01-29T02:51:22.186Z,2.40
2018-01-29T02:53:50.627Z,2.77
2018-01-29T02:56:18.990Z,2.80
2018-01-29T02:58:48.110Z,2.97
2018-01-29T03:01:17.244Z,2.83
2018-01-29T03:03:45.588Z,3.73
2018-01-29T03:06:13.874Z,4.77
2018-01-29T03:08:42.166Z,3.63
2018-01-29T03:11:10.458Z,3.30
2018-01-29T03:13:38.792Z,3.80
2018-01-29T03:16:07.095Z,3.90
2018-01-29T03:18:35.416Z,2.67
2018-01-29T03:21:03.693Z,2.53
2018-01-29T03:23:31.982Z,2.90
2018-01-29T03:26:00.279Z,3.13
2018-01-29T03:28:28.564Z,2.53
2018-01-29T03:30:56.846Z,2.50
2018-01-29T03:33:25.248Z,2.57
2018-01-29T03:35:53.531Z,2.67
2018-01-29T03:38:21.831Z,2.50
2018-01-29T03:40:50.117Z,1.90
2018-01-29T03:43:18.429Z,2.20
2018-01-29T03:45:46.729Z,2.60
2018-01-29T03:48:15.027Z,3.00
2018-01-29T03:50:44.098Z,2.63
2018-01-29T03:53:12.393Z,2.90
2018-01-29T03:55:40.695Z,2.20
2018-01-29T03:58:08.991Z,2.60
2018-01-29T04:00:37.477Z,2.23
2018-01-29T04:03:05.802Z,2.33
2018-01-29T04:05:34.851Z,2.57
2018-01-29T04:08:03.150Z,2.50
2018-01-29T04:10:31.448Z,2.87
2018-01-29T04:12:59.958Z,2.90
2018-01-29T04:15:28.246Z,2.53
2018-01-29T04:17:56.577Z,3.20
2018-01-29T04:20:24.951Z,2.70
2018-01-29T04:22:54.009Z,3.10
2018-01-29T04:25:22.303Z,3.73
2018-01-29T04:27:50.585Z,2.80
2018-01-29T04:30:18.899Z,2.50
2018-01-29T04:32:47.196Z,3.20
2018-01-29T04:35:15.842Z,2.00
2018-01-29T04:37:44.160Z,2.03
2018-01-29T04:40:12.495Z,2.03
2018-01-29T04:42:41.556Z,1.60
2018-01-29T04:45:09.856Z,2.03
2018-01-29T04:47:38.165Z,2.03
2018-01-29T04:50:06.793Z,2.40
2018-01-29T04:52:35.143Z,2.10
2018-01-29T04:55:03.481Z,2.50
2018-01-29T04:57:31.902Z,1.50
2018-01-29T05:00:00.288Z,1.77
2018-01-29T05:02:28.866Z,1.90
2018-01-29T05:04:57.198Z,2.10
2018-01-29T05:07:25.546Z,2.13
2018-01-29T05:09:54.173Z,1.97
2018-01-29T05:12:22.495Z,1.97
2018-01-29T05:14:50.886Z,2.30
2018-01-29T05:17:19.545Z,2.37
2018-01-29T05:19:47.830Z,2.40
2018-01-29T05:22:16.147Z,3.30
2018-01-29T05:24:44.524Z,2.77
2018-01-29T05:27:12.865Z,2.90
2018-01-29T05:29:41.921Z,3.33
2018-01-29T05:32:10.307Z,3.23
2018-01-29T05:34:38.625Z,2.40
2018-01-29T05:37:07.918Z,2.60
2018-01-29T05:39:36.262Z,3.60
2018-01-29T05:42:05.365Z,3.40
2018-01-29T05:44:34.506Z,3.43
2018-01-29T05:47:02.850Z,3.03
2018-01-29T05:49:31.245Z,3.40
2018-01-29T05:51:59.617Z,3.40
2018-01-29T05:54:27.946Z,3.23
2018-01-29T05:56:57.022Z,2.83
2018-01-29T05:59:25.400Z,2.97
2018-01-29T06:01:53.724Z,3.33
2018-01-29T06:04:22.052Z,3.37
2018-01-29T06:06:50.685Z,3.57
2018-01-29T06:09:19.026Z,4.40
2018-01-29T06:11:48.101Z,3.70
2018-01-29T06:14:16.579Z,3.83
2018-01-29T06:16:44.872Z,3.93
2018-01-29T06:19:13.191Z,3.80
2018-01-29T06:21:41.859Z,3.50
2018-01-29T06:24:10.271Z,3.10
2018-01-29T06:26:38.611Z,2.90
2018-01-29T06:29:06.990Z,2.73
2018-01-29T06:31:35.373Z,3.87
2018-01-29T06:34:04.580Z,3.80
2018-01-29T06:36:33.660Z,3.80
2018-01-29T06:39:01.989Z,3.67
2018-01-29T06:41:30.294Z,3.33
2018-01-29T06:43:58.621Z,3.93
2018-01-29T06:46:26.919Z,3.90
2018-01-29T06:48:55.543Z,4.30
2018-01-29T06:51:24.593Z,4.20
2018-01-29T06:53:52.931Z,3.90
2018-01-29T06:56:21.238Z,4.10
2018-01-29T06:58:50.297Z,3.83
2018-01-29T07:01:18.597Z,4.43
2018-01-29T07:03:46.881Z,4.50
2018-01-29T07:06:15.193Z,4.30
2018-01-29T07:08:43.490Z,3.57
2018-01-29T07:11:11.954Z,4.00
2018-01-29T07:13:40.291Z,3.43
2018-01-29T07:16:08.639Z,4.40
2018-01-29T07:18:37.271Z,3.33
2018-01-29T07:21:06.344Z,3.60
2018-01-29T07:23:34.650Z,3.63
2018-01-29T07:26:02.991Z,3.60
2018-01-29T07:28:31.278Z,3.57
2018-01-29T07:30:59.602Z,4.03
2018-01-29T07:33:28.317Z,4.40
2018-01-29T07:35:56.617Z,4.03
2018-01-29T07:38:24.951Z,4.87
2018-01-29T07:40:53.424Z,4.53
2018-01-29T07:43:22.503Z,4.30
2018-01-29T07:45:51.043Z,4.80
2018-01-29T07:48:19.351Z,4.37
2018-01-29T07:50:47.646Z,5.17
2018-01-29T07:53:15.982Z,4.53
2018-01-29T07:55:44.282Z,5.27
2018-01-29T07:58:13.359Z,4.90
2018-01-29T08:00:41.656Z,5.60
2018-01-29T08:03:09.980Z,5.93
2018-01-29T08:05:39.091Z,6.87
2018-01-29T08:08:07.415Z,5.37
2018-01-29T08:10:35.749Z,6.40
2018-01-29T08:13:04.093Z,6.60
2018-01-29T08:15:32.434Z,6.43
2018-01-29T08:18:01.574Z,7.00
2018-01-29T08:20:29.886Z,6.60
2018-01-29T08:22:58.227Z,5.97
2018-01-29T08:25:26.659Z,7.10
2018-01-29T08:27:54.999Z,8.40
2018-01-29T08:30:23.359Z,7.50
2018-01-29T08:32:51.925Z,8.03
2018-01-29T08:35:20.231Z,8.27
2018-01-29T08:37:48.565Z,7.93
2018-01-29T08:40:17.047Z,7.63
2018-01-29T08:42:45.408Z,7.73
2018-01-29T08:45:13.854Z,7.40
2018-01-29T08:47:42.546Z,8.80
2018-01-29T08:50:10.896Z,8.33
2018-01-29T08:52:39.249Z,8.27
2018-01-29T08:55:08.368Z,9.83
2018-01-29T08:57:37.539Z,8.07
2018-01-29T09:00:05.886Z,7.83
2018-01-29T09:02:34.231Z,7.67
2018-01-29T09:05:02.545Z,7.77
2018-01-29T09:07:30.878Z,7.00
2018-01-29T09:09:59.319Z,7.10
2018-01-29T09:12:28.403Z,7.73
2018-01-29T09:14:56.722Z,8.90
2018-01-29T09:17:25.043Z,9.37
2018-01-29T09:19:53.344Z,9.17
2018-01-29T09:22:21.663Z,8.97
2018-01-29T09:24:50.308Z,8.17
2018-01-29T09:27:18.666Z,7.50
2018-01-29T09:29:46.998Z,7.77
2018-01-29T09:32:15.699Z,10.60
2018-01-29T09:34:44.100Z,8.37
2018-01-29T09:37:12.506Z,7.30
2018-01-29T09:39:41.116Z,6.70
2018-01-29T09:42:09.483Z,8.80
2018-01-29T09:44:37.829Z,6.67
2018-01-29T09:47:06.235Z,7.67
2018-01-29T09:49:35.358Z,8.90
2018-01-29T09:52:04.061Z,8.37
2018-01-29T09:54:32.430Z,9.90
2018-01-29T09:57:01.508Z,8.57
2018-01-29T09:59:30.103Z,8.40
2018-01-29T10:01:58.481Z,9.40
2018-01-29T10:04:26.806Z,8.00
2018-01-29T10:06:55.400Z,9.10
2018-01-29T10:09:23.728Z,9.00
2018-01-29T10:11:52.121Z,8.43
2018-01-29T10:14:20.584Z,8.10
2018-01-29T10:16:49.642Z,7.87
2018-01-29T10:19:17.942Z,8.50
2018-01-29T10:21:46.329Z,10.23
2018-01-29T10:24:14.680Z,6.70
2018-01-29T10:26:43.808Z,8.23
2018-01-29T10:29:12.088Z,9.17
2018-01-29T10:31:40.410Z,8.60
2018-01-29T10:34:08.713Z,8.30
2018-01-29T10:36:37.199Z,7.27
2018-01-29T10:39:05.661Z,8.60
2018-01-29T10:41:34.088Z,7.80
2018-01-29T10:44:02.493Z,7.50
2018-01-29T10:46:30.838Z,9.17
2018-01-29T10:48:59.166Z,6.90
2018-01-29T10:51:27.809Z,7.23
2018-01-29T10:53:56.922Z,7.10
2018-01-29T10:56:26.002Z,7.20
2018-01-29T10:58:54.299Z,5.90
2018-01-29T11:01:22.598Z,7.20
2018-01-29T11:03:51.657Z,7.07
2018-01-29T11:06:19.966Z,6.70
2018-01-29T11:08:48.248Z,6.03
2018-01-29T11:11:17.368Z,6.53
2018-01-29T11:13:45.685Z,6.97
2018-01-29T11:16:14.034Z,6.30
2018-01-29T11:18:42.350Z,6.63
2018-01-29T11:21:10.744Z,6.53
2018-01-29T11:23:39.070Z,6.37
2018-01-29T11:26:07.445Z,6.50
2018-01-29T11:28:35.872Z,7.20
2018-01-29T11:31:05.074Z,7.77
2018-01-29T11:33:33.499Z,6.97
2018-01-29T11:36:01.882Z,6.27
2018-01-29T11:38:30.278Z,5.67
2018-01-29T11:40:58.703Z,6.53
2018-01-29T11:43:27.084Z,6.50
2018-01-29T11:45:55.612Z,6.60
2018-01-29T11:48:24.784Z,7.00
2018-01-29T11:50:53.215Z,6.10
2018-01-29T11:53:22.320Z,5.80
2018-01-29T11:55:50.660Z,7.40
2018-01-29T11:58:18.972Z,6.00
2018-01-29T12:00:47.305Z,5.50
2018-01-29T12:03:15.596Z,5.50
2018-01-29T12:05:44.656Z,5.20
2018-01-29T12:08:12.989Z,4.90
2018-01-29T12:10:42.121Z,5.47
2018-01-29T12:13:10.423Z,5.37
2018-01-29T12:15:38.771Z,5.43
2018-01-29T12:18:07.105Z,5.60
2018-01-29T12:20:35.434Z,4.93
2018-01-29T12:23:03.776Z,5.13
2018-01-29T12:25:32.101Z,5.60
2018-01-29T12:28:00.421Z,5.27
2018-01-29T12:30:29.494Z,5.57
2018-01-29T12:32:57.809Z,4.90
2018-01-29T12:35:26.099Z,4.90
2018-01-29T12:37:54.389Z,6.00
2018-01-29T12:40:22.818Z,4.47
2018-01-29T12:42:51.121Z,4.40
2018-01-29T12:45:19.452Z,4.70
2018-01-29T12:47:47.770Z,4.63
2018-01-29T12:50:16.874Z,4.80
2018-01-29T12:52:45.194Z,4.13
2018-01-29T12:55:13.485Z,5.00
2018-01-29T12:57:41.795Z,4.70
2018-01-29T13:00:10.179Z,4.73
2018-01-29T13:02:38.521Z,5.80
2018-01-29T13:05:07.635Z,5.27
2018-01-29T13:07:36.821Z,5.20
2018-01-29T13:10:05.537Z,5.50
2018-01-29T13:12:33.950Z,5.13
2018-01-29T13:15:03.368Z,4.40
2018-01-29T13:17:31.748Z,5.43
2018-01-29T13:20:00.909Z,5.20
2018-01-29T13:22:29.258Z,5.30
2018-01-29T13:24:57.583Z,4.37
2018-01-29T13:27:26.246Z,3.70
2018-01-29T13:29:54.558Z,4.60
2018-01-29T13:32:22.915Z,4.57
2018-01-29T13:34:51.303Z,5.17
2018-01-29T13:37:19.621Z,4.30
2018-01-29T13:39:48.027Z,4.77
2018-01-29T13:42:16.322Z,5.27
2018-01-29T13:44:44.611Z,5.90
2018-01-29T13:47:12.903Z,4.83
2018-01-29T13:49:41.250Z,5.83
2018-01-29T13:52:09.557Z,4.77
2018-01-29T13:54:38.627Z,5.37
2018-01-29T13:57:06.947Z,5.40
2018-01-29T13:59:36.037Z,4.87
2018-01-29T14:02:04.388Z,5.00
2018-01-29T14:04:32.711Z,5.40
2018-01-29T14:07:01.086Z,4.50
2018-01-29T14:09:29.399Z,4.90
2018-01-29T14:11:57.698Z,4.30
2018-01-29T14:14:26.827Z,4.30
2018-01-29T14:16:55.178Z,3.80
2018-01-29T14:19:23.517Z,4.90
2018-01-29T14:21:51.828Z,4.23
2018-01-29T14:24:20.111Z,3.87
2018-01-29T14:26:48.420Z,3.83
2018-01-29T14:29:16.747Z,4.47
2018-01-29T14:31:45.041Z,4.80
2018-01-29T14:34:13.333Z,4.07
2018-01-29T14:36:42.624Z,4.17
2018-01-29T14:39:10.931Z,5.00
2018-01-29T15:08:20.582Z,4.73
2018-01-29T15:10:48.953Z,3.90
2018-01-29T15:13:17.325Z,3.67
2018-01-29T15:15:45.717Z,3.93
2018-01-29T15:18:14.078Z,3.70
2018-01-29T15:20:43.175Z,4.00
2018-01-29T15:23:11.534Z,3.93
2018-01-29T15:25:39.905Z,2.47
2018-01-29T15:28:08.265Z,3.87
2018-01-29T15:30:36.934Z,3.30
2018-01-29T15:33:05.375Z,3.80
2018-01-29T15:35:34.182Z,3.80
2018-01-29T15:38:03.347Z,4.03
2018-01-29T15:40:32.563Z,3.40
2018-01-29T15:43:00.993Z,3.43
2018-01-29T15:45:29.316Z,2.70
2018-01-29T15:47:57.950Z,3.20
2018-01-29T15:50:27.215Z,2.50
2018-01-29T15:52:55.506Z,2.90
2018-01-29T15:55:23.859Z,3.30
2018-01-29T15:57:53.034Z,2.60
2018-01-29T16:00:21.426Z,3.20
2018-01-29T16:02:49.801Z,3.10
2018-01-29T16:05:18.125Z,2.87
2018-01-29T16:07:46.493Z,2.70
2018-01-29T16:10:14.831Z,4.07
2018-01-29T16:12:43.930Z,4.30
2018-01-29T16:15:12.363Z,4.33
2018-01-29T16:17:40.754Z,3.30
2018-01-29T16:20:09.403Z,3.27
2018-01-29T16:22:37.799Z,3.17
2018-01-29T16:25:06.490Z,3.80
2018-01-29T16:27:35.591Z,3.30
2018-01-29T16:30:03.929Z,3.47
2018-01-29T16:32:32.248Z,3.17
2018-01-29T16:35:00.584Z,3.50
2018-01-29T16:37:29.408Z,2.97
2018-01-29T16:39:58.551Z,3.50
2018-01-29T16:42:26.986Z,3.57
2018-01-29T16:44:55.411Z,4.10
2018-01-29T16:47:23.857Z,3.57
2018-01-29T16:49:52.540Z,3.20
2018-01-29T16:52:21.682Z,5.37
2018-01-29T16:54:51.119Z,3.57
2018-01-29T16:57:20.251Z,3.43
2018-01-29T16:59:48.533Z,4.10
2018-01-29T17:02:16.814Z,4.77
2018-01-29T17:04:45.141Z,4.40
2018-01-29T17:07:13.464Z,4.30
2018-01-29T17:09:41.838Z,5.27
2018-01-29T17:12:10.214Z,4.27
2018-01-29T17:14:38.655Z,3.47
2018-01-29T17:17:07.736Z,2.60
2018-01-29T17:19:36.422Z,3.47
2018-01-29T17:22:04.800Z,2.63
2018-01-29T17:24:33.206Z,2.60
2018-01-29T17:27:01.563Z,6.63
2018-01-29T17:29:30.174Z,2.20
2018-01-29T17:31:59.091Z,1.93
2018-01-29T17:34:28.264Z,1.90
2018-01-29T17:36:56.754Z,2.03
2018-01-29T17:39:25.147Z,1.80
2018-01-29T17:41:54.291Z,1.53
2018-01-29T17:44:22.607Z,1.30
2018-01-29T17:46:50.969Z,1.90
2018-01-29T17:49:19.363Z,2.60
2018-01-29T17:51:47.686Z,1.70
2018-01-29T17:54:16.011Z,1.30
2018-01-29T17:56:45.089Z,2.10
2018-01-29T17:59:13.617Z,1.40
2018-01-29T18:01:41.934Z,1.30
2018-01-29T18:04:10.349Z,1.30
2018-01-29T18:06:39.485Z,1.73
2018-01-29T18:09:08.117Z,1.77
2018-01-29T18:11:36.462Z,1.80
2018-01-29T18:14:04.780Z,2.40
2018-01-29T18:16:33.177Z,1.57
2018-01-29T18:19:01.554Z,1.37
2018-01-29T18:21:29.908Z,1.33
2018-01-29T18:23:58.203Z,1.20
2018-01-29T18:26:26.547Z,1.30
2018-01-29T18:28:55.684Z,1.50
2018-01-29T18:31:24.030Z,1.80
2018-01-29T18:33:53.085Z,2.03
2018-01-29T18:36:21.808Z,1.60
2018-01-29T18:38:50.118Z,1.60
2018-01-29T18:41:18.543Z,1.17
2018-01-29T18:43:46.867Z,0.90
2018-01-29T18:46:15.202Z,1.20
2018-01-29T18:48:43.856Z,1.27
2018-01-29T18:51:13.123Z,1.83
2018-01-29T18:53:42.207Z,1.27
2018-01-29T18:56:10.590Z,1.83
2018-01-29T18:58:39.242Z,1.70
2018-01-29T19:01:07.691Z,1.73
2018-01-29T19:03:36.021Z,1.87
2018-01-29T19:06:04.347Z,1.00
2018-01-29T19:08:32.662Z,1.00
2018-01-29T19:11:01.314Z,1.10
2018-01-29T19:13:29.618Z,0.83
2018-01-29T19:15:57.962Z,1.20
2018-01-29T19:18:27.069Z,0.93
2018-01-29T19:20:57.215Z,1.30
2018-01-29T19:23:25.917Z,1.60
2018-01-29T19:25:54.242Z,1.17
2018-01-29T19:28:22.679Z,1.20
2018-01-29T19:30:51.059Z,2.30
2018-01-29T19:33:19.801Z,1.50
2018-01-29T19:35:48.166Z,1.70
2018-01-29T19:38:17.213Z,0.90
2018-01-29T19:40:45.502Z,0.70
2018-01-29T19:43:13.924Z,0.70
2018-01-29T19:45:42.221Z,0.80
2018-01-29T19:48:10.531Z,0.70
2018-01-29T19:50:39.645Z,0.70
2018-01-29T19:53:08.850Z,0.90
2018-01-29T19:55:37.691Z,0.70
2018-01-29T19:58:06.762Z,0.50
2018-01-29T20:00:35.117Z,0.70
2018-01-29T20:03:03.434Z,0.90
2018-01-29T20:05:31.786Z,0.60
2018-01-29T20:08:00.395Z,0.50
2018-01-29T20:10:28.710Z,0.40
2018-01-29T20:12:57.118Z,0.50
2018-01-29T20:15:25.466Z,0.50
2018-01-29T20:17:53.789Z,0.60
2018-01-29T20:20:22.448Z,0.60
2018-01-29T20:22:50.775Z,0.50
2018-01-29T20:25:19.105Z,0.60
2018-01-29T20:27:47.481Z,0.70
2018-01-29T20:30:16.556Z,0.70
2018-01-29T20:32:45.211Z,0.80
2018-01-29T20:35:13.635Z,1.10
2018-01-29T20:37:41.954Z,1.20
2018-01-29T20:40:10.357Z,1.93
2018-01-29T20:42:39.461Z,1.30
2018-01-29T20:45:07.863Z,1.70
2018-01-29T20:47:36.948Z,1.90
2018-01-29T20:50:05.312Z,2.20
2018-01-29T20:52:33.637Z,2.37
2018-01-29T20:55:02.014Z,1.80
2018-01-29T20:57:30.707Z,1.90
2018-01-29T20:59:59.803Z,1.77
2018-01-29T21:02:28.157Z,1.80
2018-01-29T21:04:57.231Z,1.90
2018-01-29T21:07:25.566Z,1.43
2018-01-29T21:09:54.182Z,1.27
2018-01-29T21:12:22.536Z,1.80
2018-01-29T21:14:51.613Z,1.40
2018-01-29T21:17:19.937Z,1.37
2018-01-29T21:19:49.032Z,1.20
2018-01-29T21:22:18.447Z,1.37
2018-01-29T21:24:46.787Z,1.40
2018-01-29T21:27:15.126Z,1.13
2018-01-29T21:29:43.478Z,8.80
2018-01-29T21:32:11.808Z,1.40
2018-01-29T21:34:40.158Z,1.10
2018-01-29T21:37:08.495Z,1.10
2018-01-29T21:39:37.801Z,1.07
2018-01-29T21:42:06.142Z,1.07
2018-01-29T21:44:34.473Z,1.10
2018-01-29T21:47:02.836Z,0.80
2018-01-29T21:49:31.154Z,0.73
2018-01-29T21:51:59.492Z,0.80
2018-01-29T21:54:27.841Z,0.93
2018-01-29T21:56:56.492Z,0.70
2018-01-29T21:59:24.804Z,0.60
2018-01-29T22:01:53.136Z,0.67
2018-01-29T22:04:21.459Z,0.60
2018-01-29T22:06:49.771Z,0.80
2018-01-29T22:09:18.466Z,0.70
2018-01-29T22:11:46.771Z,1.00
2018-01-29T22:14:15.142Z,0.80
2018-01-29T22:16:43.440Z,1.23
2018-01-29T22:19:11.759Z,0.90
2018-01-29T22:21:40.161Z,0.67
2018-01-29T22:24:08.490Z,0.80
2018-01-29T22:26:36.816Z,0.80
2018-01-29T22:29:05.215Z,1.00
2018-01-29T22:31:33.540Z,0.80
2018-01-29T22:34:02.168Z,0.67
2018-01-29T22:36:30.472Z,0.80
2018-01-29T22:38:58.802Z,1.23
2018-01-29T22:41:27.166Z,1.43
2018-01-29T22:43:55.475Z,1.50
2018-01-29T22:46:24.108Z,1.07
2018-01-29T22:48:53.438Z,3.00
2018-01-29T22:51:21.762Z,2.17
2018-01-29T22:53:50.063Z,2.57
2018-01-29T22:56:18.382Z,2.17
2018-01-29T22:58:47.899Z,1.67
2018-01-29T23:01:17.006Z,1.50
2018-01-29T23:03:46.171Z,1.50
2018-01-29T23:06:14.574Z,1.23
2018-01-29T23:08:42.977Z,1.10
2018-01-29T23:11:11.629Z,1.50
2018-01-29T23:13:40.035Z,0.80
2018-01-29T23:16:08.393Z,1.67
2018-01-29T23:18:40.609Z,1.10
2018-01-29T23:21:09.910Z,1.20
2018-01-29T23:23:38.381Z,1.30
2018-01-29T23:26:06.747Z,0.97
2018-01-29T23:28:35.446Z,1.20
2018-01-29T23:31:03.780Z,1.40
2018-01-29T23:33:32.135Z,1.33
2018-01-29T23:36:00.789Z,1.40
2018-01-29T23:38:29.154Z,1.27
2018-01-29T23:40:57.451Z,1.03
2018-01-29T23:43:25.923Z,1.00
2018-01-29T23:45:54.980Z,1.70
2018-01-29T23:48:23.274Z,1.40
2018-01-29T23:50:51.601Z,1.60
2018-01-29T23:53:19.905Z,1.33
2018-01-29T23:55:49.225Z,1.60
2018-01-29T23:58:18.305Z,2.37
